Time;durP1;ratioP1;P1;durP2;ratioP2;P2;SDS_P1;SDS_P2;PMS_P1;PMS_P2;Temp;Humidity;BMP_temperature;BMP_pressure;BME280_temperature;BME280_humidity;BME280_pressure;Samples;Min_cycle;Max_cycle;Signal;HPM_P1;HPM_P2
2022/09/02 00:01:58;;;;;;;2.90;2.10;;;;;;;12.37;61.73;99270.56;88912;1274;97312;-78
2022/09/02 00:04:06;;;;;;;3.70;1.80;;;;;;;12.34;61.89;99268.21;89181;1271;22666;-77
2022/09/02 00:06:18;;;;;;;5.30;1.90;;;;;;;12.32;61.97;99267.98;88959;1274;22513;-76
2022/09/02 00:08:20;;;;;;;2.10;1.90;;;;;;;12.26;61.90;99267.08;88966;1274;98499;-75
2022/09/02 00:10:26;;;;;;;2.70;2.00;;;;;;;12.22;61.95;99266.73;88936;1274;24150;-76
2022/09/02 00:12:28;;;;;;;5.70;1.90;;;;;;;12.20;62.00;99269.66;88980;1274;22598;-75
2022/09/02 00:14:34;;;;;;;4.90;1.70;;;;;;;12.16;62.07;99273.39;89031;1274;97210;-76
2022/09/02 00:16:40;;;;;;;3.00;1.90;;;;;;;12.11;62.34;99276.41;89167;1274;22511;-75
2022/09/02 00:18:47;;;;;;;11.70;2.00;;;;;;;12.11;62.32;99276.98;89222;1274;22547;-76
2022/09/02 00:21:00;;;;;;;10.10;2.20;;;;;;;12.09;62.50;99275.27;89134;1274;97643;-76
2022/09/02 00:23:02;;;;;;;3.00;1.90;;;;;;;12.08;62.59;99278.33;89152;1274;22583;-76
2022/09/02 00:25:10;;;;;;;3.00;1.90;;;;;;;12.08;62.61;99278.33;88953;1274;22544;-76
2022/09/02 00:27:11;;;;;;;3.70;2.10;;;;;;;12.04;62.62;99277.46;88887;1274;98554;-76
2022/09/02 00:29:15;;;;;;;3.70;1.80;;;;;;;12.02;62.51;99278.84;88995;1271;22592;-76
2022/09/02 00:31:18;;;;;;;3.30;2.10;;;;;;;11.98;62.67;99278.64;88998;1271;97668;-77
2022/09/02 00:33:24;;;;;;;2.30;2.10;;;;;;;11.94;62.69;99278.64;88790;1274;23414;-76
2022/09/02 00:35:27;;;;;;;5.50;2.20;;;;;;;11.89;62.85;99279.92;88997;1271;22566;-75
2022/09/02 00:37:34;;;;;;;4.60;2.00;;;;;;;11.86;63.13;99278.88;88795;1271;100424;-76
2022/09/02 00:39:37;;;;;;;3.70;2.20;;;;;;;11.86;63.15;99276.05;88938;1274;22546;-76
2022/09/02 00:41:41;;;;;;;3.00;2.20;;;;;;;11.86;63.17;99272.36;89050;1271;24246;-75
2022/09/02 00:43:57;;;;;;;2.30;2.10;;;;;;;11.83;63.14;99271.63;88758;1276;97318;-77
2022/09/02 00:45:59;;;;;;;2.80;2.20;;;;;;;11.81;63.32;99267.84;89046;1271;22546;-75
2022/09/02 00:48:16;;;;;;;4.90;1.80;;;;;;;11.80;63.46;99263.52;88918;1274;24244;-79
2022/09/02 00:50:29;;;;;;;2.40;2.10;;;;;;;11.78;63.55;99264.09;89072;1274;97354;-75
2022/09/02 00:52:52;;;;;;;2.60;2.20;;;;;;;11.76;63.70;99265.41;89142;1274;24364;-76
2022/09/02 00:55:23;;;;;;;4.10;2.10;;;;;;;11.73;63.57;99261.13;89085;1271;22596;-75
2022/09/02 00:57:52;;;;;;;5.00;2.10;;;;;;;11.74;63.60;99263.57;89015;1274;22586;-77
2022/09/02 01:00:00;;;;;;;7.40;2.40;;;;;;;11.74;63.62;99259.20;88952;1275;23207;-78
2022/09/02 01:02:06;;;;;;;4.00;2.00;;;;;;;11.72;63.83;99257.52;88937;1274;97609;-77
2022/09/02 01:04:09;;;;;;;7.60;2.30;;;;;;;11.74;63.86;99263.58;89221;1274;22749;-77
2022/09/02 01:06:15;;;;;;;5.50;2.10;;;;;;;11.73;63.83;99262.90;88952;1274;22726;-77
2022/09/02 01:08:23;;;;;;;6.50;2.40;;;;;;;11.71;63.82;99263.52;88922;1274;98800;-76
2022/09/02 01:10:34;;;;;;;5.20;2.70;;;;;;;11.68;63.80;99264.23;89184;1271;22550;-76
2022/09/02 01:12:41;;;;;;;2.40;2.10;;;;;;;11.69;63.91;99262.08;89293;1271;22544;-76
2022/09/02 01:14:43;;;;;;;2.70;2.50;;;;;;;11.66;64.04;99265.02;88997;1271;98523;-75
2022/09/02 01:16:55;;;;;;;;;;;;;;;11.64;64.04;99261.05;89051;1271;22550;-77
2022/09/02 01:19:06;;;;;;;3.60;2.30;;;;;;;11.61;64.13;99262.46;89065;1274;22563;-76
2022/09/02 01:21:13;;;;;;;2.70;2.50;;;;;;;11.57;64.18;99260.15;89090;1274;98645;-77
2022/09/02 01:23:20;;;;;;;4.60;2.60;;;;;;;11.55;64.24;99261.84;89125;1271;23978;-76
2022/09/02 01:25:27;;;;;;;7.20;2.40;;;;;;;11.53;64.16;99258.79;88776;1274;98018;-76
2022/09/02 01:27:34;;;;;;;2.60;2.20;;;;;;;11.49;64.31;99255.29;88999;1274;22603;-77
2022/09/02 01:29:36;;;;;;;7.90;2.10;;;;;;;11.51;64.41;99257.98;89012;1271;26847;-76
2022/09/02 01:31:39;;;;;;;4.10;2.20;;;;;;;11.47;64.36;99262.04;88937;1273;97699;-75
2022/09/02 01:33:42;;;;;;;5.40;2.40;;;;;;;11.46;64.40;99258.25;88876;1277;24246;-75
2022/09/02 01:35:45;;;;;;;7.40;2.00;;;;;;;11.42;64.32;99266.51;88942;1274;22595;-76
2022/09/02 01:37:52;;;;;;;10.50;2.30;;;;;;;11.40;64.53;99264.52;88927;1274;98632;-76
2022/09/02 01:39:56;;;;;;;2.60;2.30;;;;;;;11.38;64.48;99267.75;89084;1271;23469;-76
2022/09/02 01:42:00;;;;;;;5.60;2.30;;;;;;;11.35;64.81;99270.73;88963;1274;22574;-76
2022/09/02 01:44:03;;;;;;;3.50;2.60;;;;;;;11.28;64.78;99272.05;89043;1271;98607;-76
2022/09/02 01:46:07;;;;;;;6.40;2.70;;;;;;;11.27;64.66;99274.55;88959;1274;22819;-77
2022/09/02 01:48:15;;;;;;;7.30;2.50;;;;;;;11.22;64.73;99273.58;89129;1271;24260;-77
2022/09/02 01:50:21;;;;;;;8.70;2.90;;;;;;;11.19;64.73;99266.53;88832;1274;98625;-75
2022/09/02 01:52:26;;;;;;;2.50;2.20;;;;;;;11.16;64.70;99271.38;88773;1271;24437;-75
2022/09/02 01:54:29;;;;;;;3.00;2.50;;;;;;;11.15;64.69;99269.32;88845;1271;24233;-77
2022/09/02 01:56:31;;;;;;;4.00;2.40;;;;;;;11.15;64.94;99273.02;88829;1271;98562;-76
2022/09/02 01:58:36;;;;;;;3.20;2.50;;;;;;;11.16;65.08;99270.35;88736;1274;22493;-76
2022/09/02 02:00:39;;;;;;;7.90;2.50;;;;;;;11.12;65.11;99269.64;88923;1274;22500;-76
2022/09/02 02:02:42;;;;;;;5.90;2.80;;;;;;;11.12;65.13;99270.88;89021;1274;98997;-76
2022/09/02 02:04:45;;;;;;;5.90;2.10;;;;;;;11.12;65.15;99266.83;88780;1274;23283;-76
2022/09/02 02:06:47;;;;;;;3.70;2.50;;;;;;;11.12;65.10;99265.46;88922;1274;22751;-76
2022/09/02 02:08:56;;;;;;;3.20;2.50;;;;;;;11.09;65.05;99264.52;88662;1277;98673;-77
2022/09/02 02:10:59;;;;;;;3.10;2.30;;;;;;;11.06;65.37;99263.57;88921;1274;22625;-76
2022/09/02 02:13:04;;;;;;;3.40;2.60;;;;;;;11.02;65.32;99265.36;88963;1274;22761;-76
2022/09/02 02:15:10;;;;;;;3.30;2.40;;;;;;;10.98;65.47;99264.64;88804;1274;99270;-76
2022/09/02 02:17:13;;;;;;;5.30;2.50;;;;;;;10.94;65.22;99269.07;89070;1274;22723;-76
2022/09/02 02:19:16;;;;;;;2.90;2.70;;;;;;;10.90;65.18;99269.57;89084;1273;22646;-76
2022/09/02 02:21:19;;;;;;;8.80;2.60;;;;;;;10.86;65.50;99269.41;90329;1274;22587;-75
2022/09/02 02:23:30;;;;;;;4.70;2.20;;;;;;;10.82;65.34;99272.57;90513;1272;22545;-77
2022/09/02 02:25:32;;;;;;;3.10;2.60;;;;;;;10.78;65.48;99266.26;90437;1271;97731;-76
2022/09/02 02:27:38;;;;;;;3.30;2.40;;;;;;;10.76;65.41;99267.73;90257;1271;22806;-76
2022/09/02 02:29:40;;;;;;;9.60;2.10;;;;;;;10.72;65.68;99271.77;89798;1271;22593;-76
2022/09/02 02:31:45;;;;;;;5.30;2.60;;;;;;;10.68;65.64;99266.65;89596;1274;97742;-77
2022/09/02 02:33:52;;;;;;;5.00;2.70;;;;;;;10.68;65.63;99268.25;89611;1274;22620;-77
2022/09/02 02:35:56;;;;;;;2.50;2.30;;;;;;;10.65;65.62;99265.77;89779;1271;22621;-77
2022/09/02 02:37:58;;;;;;;4.70;2.70;;;;;;;10.61;65.73;99263.81;89607;1274;98816;-76
2022/09/02 02:40:06;;;;;;;4.10;2.20;;;;;;;10.58;65.73;99264.29;89803;1274;22727;-76
2022/09/02 02:42:12;;;;;;;5.80;2.40;;;;;;;10.54;65.91;99262.90;89833;1274;23200;-75
2022/09/02 02:44:17;;;;;;;4.10;2.70;;;;;;;10.51;66.00;99254.94;89132;1274;99012;-76
2022/09/02 02:46:47;;;;;;;3.90;2.30;;;;;;;10.52;65.81;99259.64;89081;1273;24333;-75
2022/09/02 02:48:49;;;;;;;3.70;2.90;;;;;;;10.53;65.93;99255.22;88974;1274;25303;-76
2022/09/02 02:51:01;;;;;;;4.90;2.60;;;;;;;10.54;66.14;99258.33;88910;1274;98609;-76
2022/09/02 02:53:03;;;;;;;3.00;2.70;;;;;;;10.55;66.28;99258.66;88936;1274;22713;-76
2022/09/02 02:55:06;;;;;;;10.50;2.50;;;;;;;10.54;66.11;99255.35;89020;1271;22659;-77
2022/09/02 02:57:13;;;;;;;4.50;2.40;;;;;;;10.53;66.22;99251.52;89010;1272;99079;-77
2022/09/02 02:59:14;;;;;;;9.60;3.00;;;;;;;10.52;66.41;99252.65;89025;1271;22652;-76
2022/09/02 03:01:16;;;;;;;5.40;2.60;;;;;;;10.51;66.36;99249.31;88824;1271;22663;-76
2022/09/02 03:03:18;;;;;;;7.10;2.80;;;;;;;10.51;66.05;99249.83;88556;1274;98648;-76
2022/09/02 03:05:24;;;;;;;5.40;2.70;;;;;;;10.53;66.65;99251.88;88598;1274;23981;-79
2022/09/02 03:07:26;;;;;;;5.60;2.40;;;;;;;10.54;66.49;99249.73;88470;1274;100048;-77
2022/09/02 03:09:29;;;;;;;4.80;2.70;;;;;;;10.53;66.56;99251.02;88626;1271;22598;-76
2022/09/02 03:11:32;;;;;;;19.20;2.70;;;;;;;10.52;66.28;99247.88;88524;1274;22696;-77
2022/09/02 03:13:34;;;;;;;13.50;2.70;;;;;;;10.52;66.21;99247.71;88343;1274;99383;-76
2022/09/02 03:15:40;;;;;;;15.50;2.50;;;;;;;10.50;66.60;99247.96;88612;1271;22616;-77
2022/09/02 03:17:44;;;;;;;17.10;3.00;;;;;;;10.49;66.35;99246.77;88564;1271;24872;-76
2022/09/02 03:19:46;;;;;;;17.80;2.90;;;;;;;10.48;66.36;99243.83;88561;1274;99041;-77
2022/09/02 03:21:47;;;;;;;9.40;2.50;;;;;;;10.47;66.47;99247.40;88415;1273;23118;-78
2022/09/02 03:23:49;;;;;;;6.60;2.50;;;;;;;10.48;66.43;99248.95;88470;1274;22842;-77
2022/09/02 03:25:51;;;;;;;4.10;2.60;;;;;;;10.46;66.52;99250.06;88397;1274;98636;-77
2022/09/02 03:27:55;;;;;;;4.70;2.40;;;;;;;10.44;66.69;99253.48;88470;1271;22692;-76
2022/09/02 03:29:58;;;;;;;4.50;2.20;;;;;;;10.41;66.70;99254.15;88567;1274;24201;-77
2022/09/02 03:32:00;;;;;;;9.60;2.10;;;;;;;10.39;66.78;99251.39;88367;1274;98915;-77
2022/09/02 03:34:03;;;;;;;13.00;2.50;;;;;;;10.41;66.72;99250.30;88489;1274;22570;-76
2022/09/02 03:36:06;;;;;;;3.30;2.30;;;;;;;10.42;66.57;99249.90;88590;1274;22964;-76
2022/09/02 03:38:12;;;;;;;2.40;2.20;;;;;;;10.43;66.66;99253.20;88515;1274;99123;-75
2022/09/02 03:40:22;;;;;;;5.50;2.20;;;;;;;10.43;66.52;99253.21;88448;1274;23131;-77
2022/09/02 03:42:24;;;;;;;7.60;2.20;;;;;;;10.41;66.80;99253.80;88455;1274;25910;-77
2022/09/02 03:44:27;;;;;;;7.90;2.40;;;;;;;10.41;66.73;99254.52;88489;1274;98812;-76
2022/09/02 03:46:28;;;;;;;4.20;2.00;;;;;;;10.40;67.26;99255.77;88602;1271;22630;-77
2022/09/02 03:48:31;;;;;;;8.70;2.90;;;;;;;10.41;67.09;99259.42;88526;1274;22663;-76
2022/09/02 03:50:38;;;;;;;3.60;2.80;;;;;;;10.42;67.23;99256.06;88456;1274;98888;-78
2022/09/02 03:52:40;;;;;;;4.70;2.90;;;;;;;10.40;67.06;99257.15;88601;1274;23043;-76
2022/09/02 03:54:43;;;;;;;5.70;2.50;;;;;;;10.38;66.94;99259.38;88422;1274;26938;-75
2022/09/02 03:56:45;;;;;;;4.10;2.60;;;;;;;10.34;66.89;99263.38;88476;1272;99187;-77
2022/09/02 03:58:50;;;;;;;3.70;2.80;;;;;;;10.28;66.94;99261.35;88555;1274;22603;-78
2022/09/02 04:00:54;;;;;;;5.80;2.50;;;;;;;10.23;66.95;99261.75;88923;1274;22574;-77
2022/09/02 04:02:58;;;;;;;4.00;2.60;;;;;;;10.20;66.87;99263.79;88336;1277;98809;-77
2022/09/02 04:05:00;;;;;;;6.70;2.80;;;;;;;10.17;66.92;99265.51;88490;1274;22725;-77
2022/09/02 04:07:05;;;;;;;18.60;2.60;;;;;;;10.15;67.28;99267.14;88755;1271;24224;-76
2022/09/02 04:09:15;;;;;;;18.10;2.80;;;;;;;10.17;67.38;99271.12;88461;1274;98870;-78
2022/09/02 04:11:19;;;;;;;26.30;3.00;;;;;;;10.16;67.31;99270.29;88885;1271;24031;-77
2022/09/02 04:13:22;;;;;;;15.60;2.90;;;;;;;10.13;67.31;99274.23;88786;1271;22564;-77
2022/09/02 04:15:24;;;;;;;19.40;2.90;;;;;;;10.12;67.20;99272.56;88552;1274;23029;-77
2022/09/02 04:17:29;;;;;;;15.10;2.80;;;;;;;10.10;67.19;99273.52;88664;1274;22565;-78
2022/09/02 04:19:40;;;;;;;7.30;2.60;;;;;;;10.07;67.24;99279.08;88596;1274;98948;-77
2022/09/02 04:21:42;;;;;;;14.50;3.20;;;;;;;10.03;67.14;99280.62;88574;1274;25452;-77
2022/09/02 04:23:46;;;;;;;26.20;2.60;;;;;;;10.00;67.15;99284.25;88594;1274;25254;-78
2022/09/02 04:25:56;;;;;;;13.00;2.90;;;;;;;9.98;67.39;99289.08;88595;1271;97929;-78
2022/09/02 04:27:59;;;;;;;3.60;2.40;;;;;;;9.98;67.64;99292.09;88710;1271;22866;-78
2022/09/02 04:30:01;;;;;;;19.00;3.00;;;;;;;9.98;67.50;99291.20;88760;1271;24233;-78
2022/09/02 04:32:05;;;;;;;15.30;2.70;;;;;;;9.99;67.26;99290.48;88556;1274;99476;-77
2022/09/02 04:34:08;;;;;;;6.70;2.60;;;;;;;10.01;67.44;99291.08;88790;1274;25264;-77
2022/09/02 04:36:13;;;;;;;8.10;2.70;;;;;;;10.04;67.37;99288.30;88459;1274;22564;-78
2022/09/02 04:38:16;;;;;;;15.00;3.50;;;;;;;10.07;67.65;99289.60;88522;1274;98830;-78
2022/09/02 04:40:21;;;;;;;7.50;2.30;;;;;;;10.11;67.59;99289.27;88666;1274;25331;-76
2022/09/02 04:42:24;;;;;;;11.30;2.80;;;;;;;10.15;67.51;99290.88;88669;1273;22599;-77
2022/09/02 04:44:27;;;;;;;23.90;2.90;;;;;;;10.18;67.35;99291.44;88638;1274;98960;-77
2022/09/02 04:46:29;;;;;;;12.90;3.10;;;;;;;10.23;67.49;99290.52;88494;1274;22639;-77
2022/09/02 04:48:33;;;;;;;8.20;2.80;;;;;;;10.28;67.57;99289.45;88603;1274;22609;-77
2022/09/02 04:50:36;;;;;;;7.10;2.80;;;;;;;10.32;67.46;99288.74;88424;1274;98649;-78
2022/09/02 04:52:39;;;;;;;10.60;2.60;;;;;;;10.37;67.69;99292.09;88576;1274;25398;-77
2022/09/02 04:54:42;;;;;;;18.00;3.00;;;;;;;10.41;67.57;99291.75;88657;1274;22636;-78
2022/09/02 04:56:48;;;;;;;8.60;2.90;;;;;;;10.46;67.68;99292.05;88557;1274;98801;-77
2022/09/02 04:58:51;;;;;;;8.70;2.60;;;;;;;10.51;67.58;99294.48;88659;1274;22855;-77
2022/09/02 05:00:53;;;;;;;3.90;3.10;;;;;;;10.55;67.59;99296.05;88748;1274;23508;-77
2022/09/02 05:03:15;;;;;;;11.00;2.70;;;;;;;10.59;67.61;99296.95;88624;1274;98731;-77
2022/09/02 05:05:20;;;;;;;46.80;3.90;;;;;;;10.63;67.71;99294.83;88696;1271;25514;-77
2022/09/02 05:07:22;;;;;;;21.40;3.20;;;;;;;10.67;67.42;99294.83;88536;1274;22631;-73
2022/09/02 05:09:24;;;;;;;12.20;2.80;;;;;;;10.70;67.61;99294.21;88883;1274;22549;-78
2022/09/02 05:11:28;;;;;;;11.80;3.10;;;;;;;10.77;67.67;99292.84;88507;1274;23056;-74
2022/09/02 05:13:31;;;;;;;9.70;2.90;;;;;;;10.81;67.70;99291.10;88445;1271;99021;-74
2022/09/02 05:15:37;;;;;;;9.30;3.30;;;;;;;10.85;67.77;99287.02;88566;1271;22573;-75
2022/09/02 05:17:39;;;;;;;9.80;2.60;;;;;;;10.89;67.70;99283.16;88561;1274;22778;-75
2022/09/02 05:19:40;;;;;;;15.90;3.20;;;;;;;10.92;67.73;99287.44;88432;1271;99685;-74
2022/09/02 05:21:45;;;;;;;32.00;3.50;;;;;;;10.95;67.95;99287.84;88679;1271;23471;-74
2022/09/02 05:23:49;;;;;;;19.50;3.60;;;;;;;10.98;67.68;99286.95;88711;1271;25258;-74
2022/09/02 05:25:52;;;;;;;50.80;3.60;;;;;;;10.98;67.71;99281.00;88646;1271;98751;-75
2022/09/02 05:27:54;;;;;;;23.00;3.70;;;;;;;11.07;67.90;99284.11;88577;1271;22743;-74
2022/09/02 05:29:59;;;;;;;11.20;3.50;;;;;;;11.13;67.67;99288.80;88546;1271;22590;-75
2022/09/02 05:32:02;;;;;;;16.80;3.10;;;;;;;11.17;67.64;99285.45;88491;1274;98931;-75
2022/09/02 05:34:06;;;;;;;29.00;3.50;;;;;;;11.22;67.61;99282.91;88734;1270;22788;-74
2022/09/02 05:36:12;;;;;;;20.90;3.40;;;;;;;11.29;67.90;99287.14;88485;1274;24300;-75
2022/09/02 05:38:14;;;;;;;17.60;3.00;;;;;;;11.36;67.80;99286.85;88433;1272;99036;-75
2022/09/02 05:40:15;;;;;;;11.90;3.30;;;;;;;11.45;67.63;99285.92;88592;1271;22704;-75
2022/09/02 05:42:19;;;;;;;17.90;2.70;;;;;;;11.52;67.57;99282.41;88528;1271;24304;-76
2022/09/02 05:44:22;;;;;;;23.80;3.00;;;;;;;11.57;67.42;99283.77;88483;1271;99444;-74
2022/09/02 05:46:27;;;;;;;10.40;3.80;;;;;;;11.62;67.39;99283.89;88398;1274;24179;-75
2022/09/02 05:50:50;;;;;;;20.60;3.30;;;;;;;11.74;67.36;99285.39;88575;1271;98919;-75
2022/09/02 05:52:51;;;;;;;12.90;3.20;;;;;;;11.80;67.18;99286.73;88557;1271;25372;-74
2022/09/02 05:54:54;;;;;;;6.30;3.10;;;;;;;11.85;67.31;99285.78;88761;1271;25472;-74
2022/09/02 05:57:02;;;;;;;8.40;3.70;;;;;;;11.91;67.19;99283.70;88643;1271;98579;-75
2022/09/02 05:59:05;;;;;;;10.30;3.50;;;;;;;11.97;67.18;99285.08;88645;1271;22703;-74
2022/09/02 06:01:12;;;;;;;25.60;3.70;;;;;;;12.00;67.19;99287.34;88496;1274;23592;-75
2022/09/02 06:03:17;;;;;;;16.10;3.30;;;;;;;12.06;67.17;99279.84;88504;1274;98753;-75
2022/09/02 06:05:19;;;;;;;13.70;3.20;;;;;;;12.13;67.16;99284.63;88930;1271;25524;-74
2022/09/02 06:07:25;;;;;;;10.80;3.40;;;;;;;12.20;67.09;99288.85;88619;1271;22559;-75
2022/09/02 06:09:27;;;;;;;8.90;3.10;;;;;;;12.25;67.06;99286.13;88610;1271;22794;-74
2022/09/02 06:11:28;;;;;;;7.70;3.40;;;;;;;12.31;67.09;99289.89;88499;1274;22830;-73
2022/09/02 06:13:34;;;;;;;10.70;3.20;;;;;;;12.38;67.09;99288.61;88480;1274;99888;-74
2022/09/02 06:15:42;;;;;;;5.60;3.00;;;;;;;12.49;67.04;99287.21;88532;1272;25410;-74
2022/09/02 06:17:44;;;;;;;10.10;3.10;;;;;;;12.58;67.13;99287.63;88559;1271;22585;-74
2022/09/02 06:19:46;;;;;;;7.10;3.00;;;;;;;12.65;67.03;99287.83;88562;1271;99490;-74
2022/09/02 06:21:48;;;;;;;8.70;3.40;;;;;;;12.72;66.87;99292.88;88513;1272;22762;-74
2022/09/02 06:23:50;;;;;;;10.30;3.00;;;;;;;12.78;66.93;99291.00;88487;1274;24382;-74
2022/09/02 06:25:52;;;;;;;5.50;3.30;;;;;;;12.86;66.76;99290.77;88578;1271;98047;-74
2022/09/02 06:27:54;;;;;;;13.00;4.00;;;;;;;12.92;66.68;99293.13;88554;1271;22878;-74
2022/09/02 06:29:55;;;;;;;14.60;3.50;;;;;;;12.98;66.70;99291.38;88549;1274;25322;-74
2022/09/02 06:31:57;;;;;;;15.20;3.20;;;;;;;13.03;66.72;99294.13;88595;1271;98769;-74
2022/09/02 06:34:03;;;;;;;3.80;2.70;;;;;;;13.08;66.67;99291.71;88557;1272;25172;-75
2022/09/02 06:36:09;;;;;;;11.00;3.70;;;;;;;13.14;66.60;99295.66;88553;1271;22683;-75
2022/09/02 06:38:13;;;;;;;12.20;3.70;;;;;;;13.20;66.41;99298.34;88407;1274;98742;-74
2022/09/02 06:40:17;;;;;;;10.90;3.50;;;;;;;13.26;66.64;99302.40;88465;1271;22545;-75
2022/09/02 06:42:21;;;;;;;8.20;3.30;;;;;;;13.35;66.74;99301.58;88644;1274;22686;-74
2022/09/02 06:44:24;;;;;;;8.20;3.00;;;;;;;13.43;66.44;99297.80;88755;1270;98609;-75
2022/09/02 06:46:29;;;;;;;14.60;3.10;;;;;;;13.51;66.29;99295.98;88642;1274;22650;-74
2022/09/02 06:48:30;;;;;;;8.90;3.50;;;;;;;13.58;65.98;99292.09;88900;1271;22771;-73
2022/09/02 06:50:36;;;;;;;6.80;3.00;;;;;;;13.64;66.38;99292.60;88596;1271;98606;-75
2022/09/02 06:52:38;;;;;;;14.50;4.30;;;;;;;13.70;66.03;99295.83;88715;1271;26349;-74
2022/09/02 06:54:40;;;;;;;11.10;3.80;;;;;;;13.74;65.99;99293.27;88691;1271;22575;-76
2022/09/02 06:56:44;;;;;;;20.00;3.30;;;;;;;13.75;65.97;99293.76;88547;1272;99188;-73
2022/09/02 06:58:48;;;;;;;26.50;3.30;;;;;;;13.78;65.74;99293.43;88688;1271;24235;-74
2022/09/02 07:00:51;;;;;;;8.70;3.60;;;;;;;13.85;65.88;99296.21;88481;1271;22566;-74
2022/09/02 07:05:08;;;;;;;10.10;3.00;;;;;;;13.91;65.63;99292.69;88438;1271;99170;-74
2022/09/02 07:05:15;;;;;;;10.50;3.30;;;;;;;13.99;65.67;99295.40;88570;1271;22690;-74
2022/09/02 07:07:18;;;;;;;6.30;3.60;;;;;;;14.07;65.77;99299.39;88570;1271;22735;-75
2022/09/02 07:09:23;;;;;;;9.80;3.20;;;;;;;14.19;65.79;99297.30;88410;1272;98735;-74
2022/09/02 07:11:24;;;;;;;9.90;3.00;;;;;;;14.28;65.87;99297.11;88539;1271;22560;-74
2022/09/02 07:13:26;;;;;;;10.70;3.20;;;;;;;14.38;65.87;99293.91;88702;1271;22731;-75
2022/09/02 07:15:28;;;;;;;7.90;3.00;;;;;;;14.49;65.81;99297.13;88629;1271;98756;-75
2022/09/02 07:17:30;;;;;;;15.70;3.40;;;;;;;14.57;65.64;99296.66;88621;1271;24703;-75
2022/09/02 07:19:32;;;;;;;7.50;3.20;;;;;;;14.65;65.55;99297.13;88460;1271;98960;-75
2022/09/02 07:21:35;;;;;;;13.40;2.60;;;;;;;14.72;65.67;99293.48;88546;1272;22631;-74
2022/09/02 07:23:39;;;;;;;14.90;3.40;;;;;;;14.82;65.57;99297.66;88573;1274;22564;-74
2022/09/02 07:25:41;;;;;;;5.60;2.80;;;;;;;14.88;65.29;99296.24;88305;1274;99376;-75
2022/09/02 07:27:44;;;;;;;9.40;3.30;;;;;;;14.96;65.16;99298.23;88512;1274;25623;-75
2022/09/02 07:29:47;;;;;;;13.80;3.20;;;;;;;15.03;65.16;99291.05;88598;1271;23446;-75
2022/09/02 07:31:49;;;;;;;9.10;2.50;;;;;;;15.12;65.28;99293.86;88397;1274;98768;-74
2022/09/02 07:33:57;;;;;;;8.00;2.80;;;;;;;15.23;65.24;99292.90;88530;1274;22709;-74
2022/09/02 07:35:59;;;;;;;13.60;2.80;;;;;;;15.31;65.03;99293.27;88800;1271;25497;-75
2022/09/02 07:38:03;;;;;;;15.80;2.60;;;;;;;15.37;64.88;99295.71;88336;1271;98980;-75
2022/09/02 07:40:07;;;;;;;15.80;2.80;;;;;;;15.45;64.87;99292.88;88463;1274;22718;-75
2022/09/02 07:42:09;;;;;;;26.80;3.40;;;;;;;15.53;64.89;99292.55;88605;1274;22594;-76
2022/09/02 07:44:11;;;;;;;12.10;2.70;;;;;;;15.62;64.56;99292.18;88594;1271;99151;-74
2022/09/02 07:46:13;;;;;;;19.50;3.30;;;;;;;15.71;64.44;99295.52;88497;1271;22593;-75
2022/09/02 07:48:15;;;;;;;13.40;2.70;;;;;;;15.77;64.26;99293.70;88656;1271;24319;-74
2022/09/02 07:50:17;;;;;;;11.70;2.70;;;;;;;15.85;64.31;99294.48;88588;1273;98990;-76
2022/09/02 07:52:19;;;;;;;3.40;2.40;;;;;;;15.92;64.10;99301.64;88634;1271;25540;-75
2022/09/02 07:54:24;;;;;;;9.10;2.30;;;;;;;15.96;63.85;99299.42;88503;1274;22860;-74
2022/09/02 07:56:26;;;;;;;12.30;2.20;;;;;;;16.03;64.13;99298.28;88439;1274;98845;-75
2022/09/02 07:58:28;;;;;;;11.10;2.40;;;;;;;16.16;63.97;99291.20;88853;1271;22731;-75
2022/09/02 08:00:31;;;;;;;14.80;2.20;;;;;;;16.21;63.60;99292.63;88580;1271;22811;-75
2022/09/02 08:02:33;;;;;;;7.80;2.00;;;;;;;16.24;63.35;99289.95;88362;1273;98935;-75
2022/09/02 08:04:35;;;;;;;10.80;1.90;;;;;;;16.31;63.57;99292.35;88620;1271;23590;-74
2022/09/02 08:06:37;;;;;;;15.50;2.50;;;;;;;16.41;63.49;99291.13;88702;1270;22701;-74
2022/09/02 08:08:41;;;;;;;7.00;1.80;;;;;;;16.50;63.20;99289.30;88526;1271;98785;-73
2022/09/02 08:10:43;;;;;;;4.60;1.90;;;;;;;16.57;62.94;99286.52;88441;1274;26172;-76
2022/09/02 08:12:46;;;;;;;5.40;2.60;;;;;;;16.63;62.85;99288.77;88627;1271;22565;-75
2022/09/02 08:14:49;;;;;;;20.20;2.00;;;;;;;16.69;62.96;99290.63;88350;1271;99166;-73
2022/09/02 08:16:53;;;;;;;10.30;2.00;;;;;;;16.81;62.67;99287.90;88516;1271;26985;-74
2022/09/02 08:18:55;;;;;;;6.90;1.60;;;;;;;16.84;62.66;99288.90;88507;1274;22633;-74
2022/09/02 08:20:57;;;;;;;5.80;2.00;;;;;;;16.90;62.47;99291.04;88477;1271;98659;-75
2022/09/02 08:22:59;;;;;;;7.60;1.80;;;;;;;16.97;62.55;99291.61;88636;1271;22711;-75
2022/09/02 08:25:02;;;;;;;10.70;2.50;;;;;;;17.04;62.43;99285.64;88513;1271;23228;-75
2022/09/02 08:27:06;;;;;;;1.80;1.50;;;;;;;17.12;62.40;99282.98;88533;1271;98748;-74
2022/09/02 08:29:08;;;;;;;12.70;1.90;;;;;;;17.26;62.32;99283.55;88453;1271;22795;-73
2022/09/02 08:31:10;;;;;;;6.40;1.90;;;;;;;17.37;61.87;99285.95;88530;1274;25522;-73
2022/09/02 08:33:12;;;;;;;4.40;1.90;;;;;;;17.46;61.66;99284.80;88457;1272;98786;-74
2022/09/02 08:35:17;;;;;;;10.50;1.60;;;;;;;17.55;61.84;99280.82;88705;1271;25433;-74
2022/09/02 08:37:18;;;;;;;1.80;1.60;;;;;;;17.72;61.70;99280.47;88509;1271;25404;-74
2022/09/02 08:39:20;;;;;;;12.50;1.60;;;;;;;17.83;61.54;99275.73;88413;1274;98989;-75
2022/09/02 08:41:41;;;;;;;1.60;1.30;;;;;;;17.91;61.02;99278.23;88649;1271;22768;-76
2022/09/02 08:43:45;;;;;;;2.90;1.10;;;;;;;17.98;60.77;99273.05;88550;1272;99008;-76
2022/09/02 08:45:48;;;;;;;6.60;1.50;;;;;;;18.05;60.77;99274.15;88626;1274;26620;-76
2022/09/02 08:48:03;;;;;;;3.00;1.20;;;;;;;18.13;60.37;99273.39;88766;1271;22613;-75
2022/09/02 08:50:20;;;;;;;1.80;1.20;;;;;;;18.20;60.32;99275.48;88629;1271;98679;-80
2022/09/02 08:52:57;;;;;;;3.50;1.20;;;;;;;18.23;59.49;99267.34;88643;1271;22764;-76
2022/09/02 08:55:01;;;;;;;2.90;1.30;;;;;;;18.36;59.68;99274.15;88234;1280;22732;-75
2022/09/02 08:57:03;;;;;;;2.90;1.20;;;;;;;18.37;59.67;99264.65;88091;1280;98696;-76
2022/09/02 08:59:08;;;;;;;7.50;1.30;;;;;;;18.50;59.53;99267.77;88203;1278;22699;-76
2022/09/02 09:02:06;;;;;;;4.90;1.50;;;;;;;18.59;59.68;99261.91;88348;1279;22885;-76
2022/09/02 09:04:32;;;;;;;3.10;1.20;;;;;;;18.69;58.88;99265.26;88480;1281;23522;-73
2022/09/02 09:06:52;;;;;;;14.20;1.20;;;;;;;18.69;58.32;99256.30;88177;1280;22784;-77
2022/09/02 09:09:01;;;;;;;8.20;1.20;;;;;;;18.71;58.76;99258.86;88248;1279;98916;-78
2022/09/02 09:11:13;;;;;;;5.20;1.20;;;;;;;18.79;57.76;99256.27;88678;1279;22554;-77
2022/09/02 09:13:54;;;;;;;6.30;1.30;;;;;;;18.75;57.71;99256.05;88373;1280;22689;-77
2022/09/02 09:16:08;;;;;;;1.60;1.10;;;;;;;18.87;58.23;99259.05;88315;1278;22568;-76
2022/09/02 09:18:33;;;;;;;3.80;0.70;;;;;;;18.97;57.49;99257.63;88549;1280;22650;-79
2022/09/02 09:20:41;;;;;;;0.80;0.80;;;;;;;18.92;56.34;99252.44;88438;1279;98838;-79
2022/09/02 09:22:45;;;;;;;2.80;1.30;;;;;;;18.88;56.71;99250.45;88022;1279;22569;-76
2022/09/02 09:25:08;;;;;;;1.40;1.10;;;;;;;18.94;57.19;99249.78;88309;1279;24954;-83
2022/09/02 09:27:18;;;;;;;2.90;1.10;;;;;;;19.05;57.05;99246.62;88268;1279;98729;-81
2022/09/02 09:29:20;;;;;;;4.70;1.20;;;;;;;19.11;56.65;99249.20;88298;1280;22738;-76
2022/09/02 09:31:28;;;;;;;12.90;1.70;;;;;;;19.16;56.67;99246.09;88364;1274;23855;-76
2022/09/02 09:33:30;;;;;;;10.10;1.50;;;;;;;19.23;56.93;99245.33;88430;1274;98740;-74
2022/09/02 09:35:48;;;;;;;7.30;1.30;;;;;;;19.31;54.97;99244.72;88689;1271;22650;-78
2022/09/02 09:37:53;;;;;;;16.70;1.50;;;;;;;19.27;54.92;99246.35;88552;1274;98803;-76
2022/09/02 09:39:54;;;;;;;21.20;1.40;;;;;;;19.28;55.24;99249.32;88460;1274;22614;-76
2022/09/02 09:42:02;;;;;;;21.20;1.30;;;;;;;19.28;55.02;99246.39;85532;1270;4368555;-76
2022/09/02 09:44:44;;;;;;;26.70;1.90;;;;;;;19.22;54.74;99250.63;88462;1274;99466;-73
2022/09/02 09:47:02;;;;;;;13.40;1.30;;;;;;;19.23;55.02;99244.85;88695;1271;24683;-75
2022/09/02 09:49:03;;;;;;;13.60;1.00;;;;;;;19.27;54.76;99243.80;88598;1274;22550;-75
2022/09/02 09:51:14;;;;;;;2.60;0.90;;;;;;;19.39;54.35;99242.47;88534;1271;99395;-76
2022/09/02 09:53:27;;;;;;;3.10;0.80;;;;;;;19.53;54.44;99234.45;88730;1271;27095;-78